Time;durP1;ratioP1;P1;durP2;ratioP2;P2;SDS_P1;SDS_P2;PMS_P1;PMS_P2;Temp;Humidity;BMP_temperature;BMP_pressure;BME280_temperature;BME280_humidity;BME280_pressure;Samples;Min_cycle;Max_cycle;Signal;HPM_P1;HPM_P2
2021/05/24 00:00:10;;;;;;;0.30;0.20;;;;;;;8.68;97.70;100144.84;5006104;28;20945;-47
2021/05/24 00:02:37;;;;;;;0.30;0.20;;;;;;;8.60;97.40;100140.59;5004511;28;20451;-48
2021/05/24 00:05:07;;;;;;;0.30;0.20;;;;;;;8.75;96.35;100146.44;5009555;28;21014;-47
2021/05/24 00:07:34;;;;;;;0.30;0.20;;;;;;;8.41;97.70;100136.63;5019757;28;20824;-47
2021/05/24 00:10:05;;;;;;;0.30;0.20;;;;;;;8.28;99.25;100124.53;5005815;28;20493;-47
2021/05/24 00:12:32;;;;;;;0.30;0.20;;;;;;;8.32;99.58;100124.41;5006957;28;20441;-47
2021/05/24 00:14:59;;;;;;;0.30;0.20;;;;;;;8.45;98.67;100126.81;5000097;28;20472;-47
2021/05/24 00:17:26;;;;;;;0.30;0.20;;;;;;;8.61;97.66;100126.44;4999272;28;20450;-47
2021/05/24 00:19:53;;;;;;;0.30;0.20;;;;;;;8.19;98.57;100117.63;5004905;28;20453;-47
2021/05/24 00:22:19;;;;;;;0.30;0.20;;;;;;;8.34;98.13;100119.13;5005804;28;20528;-47
2021/05/24 00:24:46;;;;;;;0.30;0.20;;;;;;;8.22;98.68;100116.69;5000774;28;20475;-46
2021/05/24 00:27:13;;;;;;;0.30;0.20;;;;;;;8.61;97.26;100118.47;5012392;28;20449;-46
2021/05/24 00:29:40;;;;;;;0.30;0.20;;;;;;;8.29;97.87;100115.66;5003831;28;20497;-47
2021/05/24 00:32:06;;;;;;;0.30;0.20;;;;;;;8.15;98.07;100113.31;5005926;28;20448;-47
2021/05/24 00:34:33;;;;;;;0.30;0.20;;;;;;;8.20;97.67;100118.50;5001060;28;20964;-47
2021/05/24 00:37:00;;;;;;;0.30;0.20;;;;;;;8.08;99.12;100116.13;4999338;28;20947;-47
2021/05/24 00:39:26;;;;;;;0.30;0.20;;;;;;;8.15;98.06;100109.81;5003925;28;20799;-47
2021/05/24 00:41:53;;;;;;;0.30;0.20;;;;;;;8.47;96.42;100112.63;5006020;28;20457;-47
2021/05/24 00:44:22;;;;;;;0.30;0.20;;;;;;;8.31;96.29;100112.06;5001082;28;20481;-48
2021/05/24 00:46:49;;;;;;;0.30;0.20;;;;;;;8.31;96.90;100103.25;4999163;28;20465;-47
2021/05/24 00:49:15;;;;;;;0.30;0.20;;;;;;;7.82;98.49;100106.97;5003785;28;20493;-47
2021/05/24 00:51:42;;;;;;;0.30;0.20;;;;;;;7.68;99.76;100106.38;5006035;28;20519;-47
2021/05/24 00:54:08;;;;;;;0.30;0.20;;;;;;;7.91;99.39;100104.13;5001384;28;20477;-47
2021/05/24 00:56:35;;;;;;;0.30;0.20;;;;;;;7.92;99.24;100105.00;5009748;28;20983;-46
2021/05/24 00:59:02;;;;;;;0.30;0.20;;;;;;;7.99;98.05;100101.31;5001482;28;20458;-47
2021/05/24 01:01:30;;;;;;;0.40;0.30;;;;;;;7.83;99.39;100100.78;4999396;28;20955;-47
2021/05/24 01:03:58;;;;;;;0.30;0.20;;;;;;;7.69;99.85;100105.47;5002667;28;20462;-48
2021/05/24 01:06:25;;;;;;;0.30;0.20;;;;;;;7.70;100.00;100109.88;5025134;28;20900;-46
2021/05/24 01:08:51;;;;;;;0.30;0.20;;;;;;;7.70;100.00;100109.88;4984789;28;20543;-47
2021/05/24 01:11:21;;;;;;;0.30;0.20;;;;;;;7.56;100.00;100111.91;5008830;28;20452;-46
2021/05/24 01:13:48;;;;;;;0.30;0.20;;;;;;;7.46;99.88;100108.56;5001612;28;20528;-47
2021/05/24 01:16:15;;;;;;;0.30;0.20;;;;;;;7.40;100.00;100106.00;5005519;28;20453;-46
2021/05/24 01:18:42;;;;;;;0.30;0.20;;;;;;;7.82;100.00;100099.03;5003450;28;20495;-47
2021/05/24 01:21:11;;;;;;;0.30;0.20;;;;;;;7.69;100.00;100097.53;4998461;28;20950;-47
2021/05/24 01:23:42;;;;;;;0.30;0.20;;;;;;;7.89;99.58;100095.34;5000251;28;20477;-47
2021/05/24 01:26:10;;;;;;;0.30;0.20;;;;;;;7.79;99.29;100099.06;5010637;28;20444;-47
2021/05/24 01:28:37;;;;;;;0.30;0.20;;;;;;;7.54;100.00;100088.13;4999754;28;20449;-46
2021/05/24 01:31:05;;;;;;;0.30;0.20;;;;;;;7.83;99.37;100074.31;5005610;28;20526;-47
2021/05/24 01:33:35;;;;;;;0.30;0.20;;;;;;;7.69;99.06;100087.84;5005036;28;20476;-47
2021/05/24 01:36:09;;;;;;;0.33;0.20;;;;;;;7.54;100.00;100089.88;5007578;28;20799;-47
2021/05/24 01:38:38;;;;;;;0.30;0.20;;;;;;;7.39;98.86;100083.97;5008861;28;20451;-47
2021/05/24 01:41:07;;;;;;;0.30;0.20;;;;;;;7.12;100.00;100088.00;5003791;28;20452;-46
2021/05/24 01:43:34;;;;;;;3.10;2.57;;;;;;;7.06;100.00;100095.19;5001878;28;20481;-46
2021/05/24 01:46:02;;;;;;;0.30;0.20;;;;;;;7.41;99.45;100082.22;5006086;28;20453;-46
2021/05/24 01:48:29;;;;;;;0.30;0.20;;;;;;;7.66;98.31;100077.28;5008397;28;20449;-47
2021/05/24 01:50:56;;;;;;;0.30;0.20;;;;;;;7.32;100.00;100071.81;5004639;28;20825;-47
2021/05/24 01:53:24;;;;;;;0.30;0.20;;;;;;;7.02;100.00;100075.00;5001585;28;20457;-47
2021/05/24 01:55:51;;;;;;;0.30;0.20;;;;;;;7.37;100.00;100067.28;5014653;28;20894;-48
2021/05/24 01:58:18;;;;;;;0.30;0.20;;;;;;;7.21;100.00;100064.97;5001695;28;20448;-47
2021/05/24 02:00:46;;;;;;;0.30;0.20;;;;;;;7.41;100.00;100061.06;5004295;28;20993;-47
2021/05/24 02:03:13;;;;;;;0.30;0.20;;;;;;;6.97;100.00;100064.50;5007936;28;20453;-46
2021/05/24 02:05:39;;;;;;;0.30;0.20;;;;;;;6.90;100.00;100049.66;5019156;28;20440;-47
2021/05/24 02:08:07;;;;;;;0.30;0.20;;;;;;;7.25;100.00;100038.44;5013339;28;20453;-48
2021/05/24 02:10:39;;;;;;;0.30;0.20;;;;;;;7.12;100.00;100043.06;5005555;28;20519;-46
2021/05/24 02:13:07;;;;;;;0.30;0.20;;;;;;;6.84;100.00;100036.56;5009449;28;20473;-47
2021/05/24 02:15:40;;;;;;;0.30;0.20;;;;;;;6.87;100.00;100035.66;5006560;28;20579;-46
2021/05/24 02:18:07;;;;;;;0.30;0.20;;;;;;;6.64;100.00;100042.19;5001467;28;20872;-47
2021/05/24 02:20:35;;;;;;;0.30;0.20;;;;;;;6.71;100.00;100033.25;5001585;28;20456;-46
2021/05/24 02:23:05;;;;;;;0.30;0.20;;;;;;;6.68;100.00;100032.44;5001770;28;20459;-47
2021/05/24 02:25:32;;;;;;;0.30;0.20;;;;;;;6.48;100.00;100035.41;5035114;28;20490;-47
2021/05/24 02:27:59;;;;;;;0.40;0.30;;;;;;;6.33;100.00;100025.09;5006627;28;20449;-46
2021/05/24 02:30:27;;;;;;;0.30;0.20;;;;;;;6.32;100.00;100036.56;5007706;28;20488;-46
2021/05/24 02:32:55;;;;;;;0.30;0.20;;;;;;;6.54;100.00;100032.66;5002397;28;20456;-46
2021/05/24 02:35:24;;;;;;;0.30;0.20;;;;;;;6.41;100.00;100037.25;5001045;28;20536;-46
2021/05/24 02:37:51;;;;;;;0.30;0.20;;;;;;;6.87;100.00;100027.72;5005779;28;20858;-46
2021/05/24 02:40:20;;;;;;;0.30;0.20;;;;;;;6.26;100.00;100026.06;5007209;28;20449;-46
2021/05/24 02:42:48;;;;;;;0.30;0.20;;;;;;;6.93;99.82;100022.31;5003493;28;20463;-47
2021/05/24 02:45:17;;;;;;;0.30;0.20;;;;;;;6.52;100.00;100019.50;5000636;28;20488;-46
2021/05/24 02:47:44;;;;;;;0.30;0.20;;;;;;;6.42;100.00;100017.88;5003902;28;20951;-45
2021/05/24 02:50:14;;;;;;;0.30;0.20;;;;;;;6.22;100.00;100019.97;5007276;28;20500;-46
2021/05/24 02:52:41;;;;;;;0.30;0.20;;;;;;;6.49;100.00;100016.03;5004679;28;20822;-47
2021/05/24 02:55:08;;;;;;;0.30;0.20;;;;;;;6.41;100.00;100020.56;5001232;28;20511;-46
2021/05/24 02:57:35;;;;;;;3.60;1.50;;;;;;;6.28;100.00;100019.00;5003098;28;20958;-46
2021/05/24 03:00:04;;;;;;;0.30;0.20;;;;;;;6.10;100.00;100022.81;5007386;28;20521;-46
2021/05/24 03:02:31;;;;;;;0.30;0.20;;;;;;;6.14;100.00;100009.53;5005527;28;20449;-46
2021/05/24 03:04:57;;;;;;;0.30;0.20;;;;;;;6.63;100.00;100011.41;5007837;28;20968;-46
2021/05/24 03:07:24;;;;;;;0.30;0.20;;;;;;;6.41;100.00;100012.63;5021675;28;20449;-46
2021/05/24 03:09:51;;;;;;;0.77;0.70;;;;;;;6.24;100.00;100008.50;5000167;28;20554;-46
2021/05/24 03:12:18;;;;;;;0.50;0.50;;;;;;;6.14;100.00;100020.09;5013358;28;20452;-46
2021/05/24 03:14:45;;;;;;;0.30;0.20;;;;;;;6.14;100.00;100013.94;5000210;28;20480;-46
2021/05/24 03:17:11;;;;;;;0.30;0.20;;;;;;;5.90;100.00;100016.06;5001239;28;20453;-45
2021/05/24 03:19:38;;;;;;;0.30;0.20;;;;;;;6.36;100.00;100017.13;5006762;28;20935;-46
2021/05/24 03:22:05;;;;;;;0.30;0.20;;;;;;;5.90;100.00;100023.97;5004349;28;20489;-46
2021/05/24 03:24:31;;;;;;;0.70;0.67;;;;;;;6.04;100.00;100015.00;4999433;28;20530;-46
2021/05/24 03:26:58;;;;;;;0.30;0.20;;;;;;;5.89;100.00;100010.75;5012838;28;20460;-46
2021/05/24 03:29:25;;;;;;;0.30;0.20;;;;;;;6.11;100.00;100006.94;5004398;28;20519;-46
2021/05/24 03:31:51;;;;;;;0.30;0.20;;;;;;;6.09;100.00;100003.47;5013577;28;20456;-46
2021/05/24 03:34:18;;;;;;;0.30;0.20;;;;;;;5.89;100.00;100011.66;4999576;28;20476;-46
2021/05/24 03:36:45;;;;;;;0.30;0.20;;;;;;;5.72;100.00;100010.97;5001104;28;20473;-46
2021/05/24 03:39:11;;;;;;;0.30;0.20;;;;;;;5.99;100.00;100015.03;5006786;28;20516;-46
2021/05/24 03:41:38;;;;;;;0.30;0.20;;;;;;;5.96;100.00;100009.81;5005474;28;20949;-46
2021/05/24 03:44:05;;;;;;;0.30;0.20;;;;;;;5.99;100.00;100014.16;5002586;28;20496;-46
2021/05/24 03:46:32;;;;;;;0.30;0.20;;;;;;;6.18;100.00;100016.53;5012804;28;20452;-46
2021/05/24 03:49:00;;;;;;;0.30;0.20;;;;;;;6.30;100.00;100014.56;4999479;28;20448;-46
2021/05/24 03:51:27;;;;;;;0.30;0.20;;;;;;;5.97;100.00;100008.91;4999852;28;20931;-46
2021/05/24 03:53:54;;;;;;;0.30;0.20;;;;;;;5.98;100.00;100013.28;5006511;28;20473;-48
2021/05/24 03:56:21;;;;;;;0.30;0.20;;;;;;;6.01;100.00;100015.00;5008022;28;20461;-46
2021/05/24 03:58:48;;;;;;;0.30;0.20;;;;;;;6.11;100.00;100022.78;4999125;28;20456;-46
2021/05/24 04:01:15;;;;;;;0.30;0.20;;;;;;;5.87;100.00;100002.84;4999552;28;20496;-46
2021/05/24 04:03:42;;;;;;;0.30;0.20;;;;;;;5.83;100.00;100005.56;4999464;28;20499;-46
2021/05/24 04:06:12;;;;;;;0.30;0.20;;;;;;;5.85;100.00;99993.22;5025986;28;20451;-46
2021/05/24 04:08:42;;;;;;;0.30;0.20;;;;;;;5.90;100.00;99996.72;5004808;28;20468;-46
2021/05/24 04:11:15;;;;;;;0.30;0.20;;;;;;;6.01;100.00;99994.78;5008412;28;20492;-46
2021/05/24 04:13:46;;;;;;;0.60;0.60;;;;;;;6.07;100.00;99989.44;5002876;28;20983;-46
2021/05/24 04:16:13;;;;;;;0.30;0.20;;;;;;;6.31;100.00;99982.03;5005945;28;20449;-45
2021/05/24 04:18:44;;;;;;;0.30;0.20;;;;;;;6.44;100.00;99991.47;5003076;28;20456;-46
2021/05/24 04:21:11;;;;;;;0.40;0.30;;;;;;;6.49;100.00;99987.88;4999125;28;20444;-46
2021/05/24 04:23:38;;;;;;;0.30;0.20;;;;;;;6.57;100.00;99993.00;5001604;28;20483;-46
2021/05/24 04:26:04;;;;;;;0.30;0.20;;;;;;;6.51;100.00;99975.50;5010345;28;20452;-46
2021/05/24 04:28:31;;;;;;;0.30;0.20;;;;;;;6.80;100.00;99982.03;5001524;28;20461;-46
2021/05/24 04:30:58;;;;;;;0.30;0.20;;;;;;;6.80;100.00;99982.03;5005707;28;20489;-46
2021/05/24 04:33:25;;;;;;;0.30;0.30;;;;;;;7.07;100.00;99985.94;5003598;28;20456;-46
2021/05/24 04:35:51;;;;;;;0.30;0.20;;;;;;;7.57;100.00;99976.13;4999169;28;20502;-46
2021/05/24 04:38:18;;;;;;;0.30;0.20;;;;;;;8.55;97.79;99983.53;5000872;28;20449;-47
2021/05/24 04:40:46;;;;;;;0.30;0.20;;;;;;;9.67;94.04;99985.75;5005672;28;20449;-46
2021/05/24 04:43:14;;;;;;;0.30;0.20;;;;;;;10.76;89.47;99968.09;5004564;28;20460;-47
2021/05/24 04:45:41;;;;;;;0.30;0.20;;;;;;;10.77;86.82;99977.81;4998731;28;20966;-47
2021/05/24 04:48:08;;;;;;;0.30;0.20;;;;;;;11.57;84.43;99974.00;5000979;28;20469;-47
2021/05/24 04:50:35;;;;;;;0.30;0.20;;;;;;;11.54;83.94;99975.94;5005517;28;21039;-47
2021/05/24 04:53:02;;;;;;;0.30;0.20;;;;;;;11.83;81.26;99980.16;5004281;28;20456;-47
2021/05/24 04:55:29;;;;;;;0.30;0.20;;;;;;;11.75;81.83;99980.41;5001297;28;20534;-47
2021/05/24 04:57:56;;;;;;;0.40;0.33;;;;;;;12.06;80.72;99973.91;5000003;28;20545;-47
2021/05/24 05:00:22;;;;;;;1.23;0.97;;;;;;;11.46;82.72;99976.19;5005769;28;20449;-47
2021/05/24 05:02:49;;;;;;;0.30;0.20;;;;;;;11.75;82.53;99979.56;5004292;28;20486;-47
2021/05/24 05:05:16;;;;;;;0.40;0.30;;;;;;;11.52;83.57;99968.00;5011589;28;20517;-47
2021/05/24 05:07:42;;;;;;;0.30;0.20;;;;;;;10.83;86.33;99963.44;5017190;28;20448;-47
2021/05/24 05:10:10;;;;;;;0.30;0.20;;;;;;;10.28;89.35;99955.56;4999251;28;20484;-47
2021/05/24 05:12:36;;;;;;;0.40;0.30;;;;;;;10.10;91.13;99953.44;5014582;28;20510;-47
2021/05/24 05:15:04;;;;;;;0.30;0.20;;;;;;;9.90;91.68;99953.22;5003208;28;21007;-47
2021/05/24 05:17:30;;;;;;;0.30;0.20;;;;;;;9.78;92.90;99951.81;5002399;28;20457;-47
2021/05/24 05:19:58;;;;;;;0.30;0.20;;;;;;;9.62;93.32;99953.19;5015586;28;20821;-47
2021/05/24 05:22:24;;;;;;;0.30;0.20;;;;;;;9.82;93.33;99957.88;5002033;28;20511;-47
2021/05/24 05:24:51;;;;;;;0.30;0.20;;;;;;;9.59;94.67;99962.09;5010563;28;20984;-48
2021/05/24 05:27:18;;;;;;;0.30;0.20;;;;;;;9.38;95.27;99960.09;5014051;28;20506;-47
2021/05/24 05:29:44;;;;;;;0.43;0.43;;;;;;;9.51;94.83;99956.16;5003705;28;20511;-47
2021/05/24 05:32:11;;;;;;;0.30;0.20;;;;;;;9.56;95.41;99951.56;5002313;28;20449;-46
2021/05/24 05:34:37;;;;;;;0.30;0.20;;;;;;;9.57;95.15;99948.00;5007238;28;20822;-47
2021/05/24 05:37:04;;;;;;;0.30;0.20;;;;;;;9.43;95.94;99955.50;5008539;28;21061;-47
2021/05/24 05:39:32;;;;;;;0.50;0.50;;;;;;;9.82;95.69;99957.88;5003501;28;20459;-47
2021/05/24 05:41:58;;;;;;;0.30;0.20;;;;;;;10.40;93.12;99970.19;5001722;28;20825;-48
2021/05/24 05:44:25;;;;;;;0.30;0.20;;;;;;;10.30;93.49;99966.13;5006731;28;20569;-47
2021/05/24 05:46:52;;;;;;;0.30;0.20;;;;;;;11.03;90.82;99952.97;5008688;28;20514;-47
2021/05/24 05:49:19;;;;;;;0.30;0.20;;;;;;;11.22;89.31;99946.03;5003772;28;20453;-47
2021/05/24 05:51:45;;;;;;;0.30;0.20;;;;;;;11.64;86.85;99945.34;5001657;28;20496;-47
2021/05/24 05:54:12;;;;;;;0.30;0.20;;;;;;;11.58;86.37;99948.25;5006573;28;20535;-47
2021/05/24 05:56:39;;;;;;;0.40;0.37;;;;;;;11.85;86.65;99944.56;5010644;28;20448;-47
2021/05/24 05:59:05;;;;;;;0.30;0.20;;;;;;;12.36;85.01;99950.53;5004257;28;20535;-47
2021/05/24 06:01:32;;;;;;;0.30;0.20;;;;;;;12.69;83.89;99934.88;5001547;28;20508;-47
2021/05/24 06:03:59;;;;;;;0.30;0.20;;;;;;;12.47;84.42;99937.59;5006061;28;20469;-47
2021/05/24 06:06:26;;;;;;;0.30;0.20;;;;;;;12.30;85.52;99932.97;5028175;28;20510;-47
2021/05/24 06:08:52;;;;;;;0.50;0.50;;;;;;;12.55;83.92;99937.28;5004611;28;20449;-47
2021/05/24 06:11:20;;;;;;;2.00;2.00;;;;;;;12.41;84.14;99933.41;5011540;28;20500;-47
2021/05/24 06:13:47;;;;;;;0.30;0.20;;;;;;;12.18;85.51;99922.81;5004287;28;20535;-47
2021/05/24 06:16:15;;;;;;;0.30;0.20;;;;;;;12.46;85.34;99909.19;5007126;28;20458;-48
2021/05/24 06:18:41;;;;;;;0.30;0.20;;;;;;;12.83;84.07;99912.94;5005696;28;20456;-48
2021/05/24 06:21:08;;;;;;;0.30;0.20;;;;;;;12.64;85.41;99913.75;5000605;28;20449;-47
2021/05/24 06:23:35;;;;;;;0.30;0.20;;;;;;;12.74;84.42;99906.22;5003676;28;20469;-47
2021/05/24 06:26:04;;;;;;;0.30;0.20;;;;;;;12.71;84.88;99899.22;5012233;28;20477;-48
2021/05/24 06:28:30;;;;;;;0.30;0.20;;;;;;;12.97;84.28;99905.22;5003288;28;20515;-47
2021/05/24 06:30:57;;;;;;;3.30;1.83;;;;;;;12.45;86.01;99903.00;5007674;28;20485;-47
2021/05/24 06:33:23;;;;;;;0.30;0.20;;;;;;;12.49;86.25;99894.91;5005944;28;20491;-47
2021/05/24 06:35:50;;;;;;;0.33;0.23;;;;;;;12.44;87.46;99905.72;5000663;28;20938;-47
2021/05/24 06:38:17;;;;;;;0.30;0.20;;;;;;;12.38;87.89;99906.00;5003083;28;20458;-47
2021/05/24 06:40:43;;;;;;;0.30;0.20;;;;;;;12.43;87.44;99912.88;5007479;28;20449;-47
2021/05/24 06:43:10;;;;;;;0.30;0.20;;;;;;;12.35;88.14;99915.00;5005589;28;20453;-48
2021/05/24 06:45:37;;;;;;;0.30;0.20;;;;;;;12.54;87.27;99907.09;5000263;28;20471;-47
2021/05/24 06:48:04;;;;;;;1.60;1.30;;;;;;;12.23;88.74;99904.00;5002294;28;20775;-48
2021/05/24 06:50:31;;;;;;;0.30;0.20;;;;;;;12.22;90.33;99904.91;5007136;28;20551;-47
2021/05/24 06:52:57;;;;;;;0.30;0.20;;;;;;;12.40;90.11;99905.00;5006578;28;20475;-47
2021/05/24 06:55:24;;;;;;;0.30;0.20;;;;;;;12.07;91.32;99915.28;5002780;28;20473;-47
2021/05/24 06:57:51;;;;;;;0.30;0.20;;;;;;;12.61;89.33;99897.00;5001943;28;20450;-48
2021/05/24 07:00:18;;;;;;;0.40;0.33;;;;;;;12.79;88.12;99898.03;5007332;28;20496;-48
2021/05/24 07:02:47;;;;;;;0.30;0.20;;;;;;;12.67;88.41;99886.97;5005800;28;20460;-47
2021/05/24 07:05:14;;;;;;;0.30;0.20;;;;;;;12.89;87.23;99891.38;5011780;28;21012;-48
2021/05/24 07:07:41;;;;;;;0.30;0.20;;;;;;;12.93;86.11;99883.16;5019526;28;20503;-48
2021/05/24 07:10:09;;;;;;;0.30;0.20;;;;;;;13.31;85.85;99883.25;5000565;28;20456;-48
2021/05/24 07:12:35;;;;;;;0.30;0.20;;;;;;;13.07;86.51;99887.84;5012697;28;20502;-48
2021/05/24 07:15:03;;;;;;;0.30;0.20;;;;;;;12.82;87.87;99890.75;5000272;28;20472;-48
2021/05/24 07:17:31;;;;;;;0.40;0.40;;;;;;;13.01;86.97;99886.31;4999982;28;20934;-48
2021/05/24 07:19:58;;;;;;;0.30;0.20;;;;;;;13.13;87.47;99890.25;5005975;28;20453;-48
2021/05/24 07:22:25;;;;;;;9.67;1.13;;;;;;;13.41;87.58;99883.66;5006781;28;20453;-48
2021/05/24 07:24:53;;;;;;;0.30;0.20;;;;;;;13.37;87.31;99880.28;5001569;28;20465;-48
2021/05/24 07:27:20;;;;;;;0.30;0.20;;;;;;;13.02;88.96;99885.41;5011331;28;20460;-48
2021/05/24 07:29:47;;;;;;;0.30;0.20;;;;;;;12.97;88.81;99878.53;5002315;28;20456;-48
2021/05/24 07:32:14;;;;;;;0.30;0.20;;;;;;;13.38;88.20;99875.81;4999111;28;20492;-48
2021/05/24 07:34:41;;;;;;;0.30;0.20;;;;;;;13.51;87.18;99882.28;5004332;28;20474;-48
2021/05/24 07:37:08;;;;;;;0.30;0.20;;;;;;;13.67;86.80;99877.94;5006448;28;21012;-48
2021/05/24 07:39:35;;;;;;;0.50;0.47;;;;;;;13.72;86.12;99883.97;5002613;28;20511;-48
2021/05/24 07:42:04;;;;;;;0.30;0.20;;;;;;;14.04;85.87;99871.69;4999474;28;20456;-48
2021/05/24 07:44:33;;;;;;;0.30;0.20;;;;;;;14.38;84.33;99873.53;5003036;28;21068;-48
2021/05/24 07:47:00;;;;;;;0.30;0.20;;;;;;;13.86;85.22;99873.47;5006519;28;20457;-48
2021/05/24 07:49:27;;;;;;;0.50;0.50;;;;;;;14.00;84.12;99874.59;5003432;28;20452;-48
2021/05/24 07:51:54;;;;;;;0.30;0.20;;;;;;;14.28;83.37;99866.94;4999638;28;20492;-48
2021/05/24 07:54:21;;;;;;;0.30;0.20;;;;;;;14.57;82.73;99870.81;5002303;28;20593;-48
2021/05/24 07:56:48;;;;;;;0.30;0.20;;;;;;;14.56;82.62;99861.06;5007461;28;20453;-48
2021/05/24 07:59:15;;;;;;;0.40;0.30;;;;;;;14.45;81.74;99868.78;5003625;28;20471;-48
2021/05/24 08:01:41;;;;;;;0.40;0.20;;;;;;;14.50;81.93;99872.94;4990969;28;20468;-48
2021/05/24 08:04:09;;;;;;;0.30;0.20;;;;;;;14.39;82.39;99874.38;4999554;28;20473;-48
2021/05/24 08:06:36;;;;;;;0.40;0.30;;;;;;;14.79;82.62;99878.59;5020087;28;20938;-48
2021/05/24 08:09:04;;;;;;;0.40;0.20;;;;;;;14.97;82.66;99874.94;4995255;28;20493;-48
2021/05/24 08:11:31;;;;;;;0.30;0.20;;;;;;;15.38;81.18;99882.56;5005701;28;20570;-48
2021/05/24 08:13:58;;;;;;;0.33;0.20;;;;;;;15.37;79.23;99868.31;5003646;28;20530;-48
2021/05/24 08:16:25;;;;;;;0.40;0.20;;;;;;;15.25;79.67;99884.19;4994276;28;20984;-48
2021/05/24 08:18:52;;;;;;;0.40;0.20;;;;;;;15.46;79.69;99876.75;5000858;28;20482;-48
2021/05/24 08:21:18;;;;;;;0.40;0.30;;;;;;;15.30;79.40;99868.72;4998621;28;20445;-48
2021/05/24 08:23:46;;;;;;;0.30;0.20;;;;;;;15.77;79.44;99871.47;4997405;28;21021;-49
2021/05/24 08:26:13;;;;;;;0.30;0.20;;;;;;;15.61;79.86;99867.91;5009712;28;20514;-49
2021/05/24 08:28:40;;;;;;;0.40;0.20;;;;;;;15.33;79.51;99864.03;4997595;28;20484;-48
2021/05/24 08:31:07;;;;;;;0.30;0.20;;;;;;;16.10;79.01;99862.44;5004184;28;20488;-48
2021/05/24 08:33:34;;;;;;;0.40;0.20;;;;;;;15.69;77.43;99861.19;5005409;28;20893;-48
2021/05/24 08:36:01;;;;;;;0.40;0.20;;;;;;;16.07;77.93;99859.94;4999230;28;20479;-48
2021/05/24 08:38:27;;;;;;;0.40;0.20;;;;;;;16.20;77.85;99851.09;4998688;28;20460;-48
2021/05/24 08:40:55;;;;;;;0.40;0.20;;;;;;;16.08;77.45;99850.94;5005311;28;20446;-48
2021/05/24 08:43:22;;;;;;;0.40;0.20;;;;;;;16.84;76.62;99838.31;5005134;28;20507;-48
2021/05/24 08:45:48;;;;;;;0.40;0.20;;;;;;;17.10;74.78;99847.44;5003059;28;20457;-50
2021/05/24 08:48:15;;;;;;;0.40;0.20;;;;;;;16.63;73.71;99829.75;5002964;28;20947;-47
2021/05/24 08:50:42;;;;;;;0.40;0.30;;;;;;;16.76;74.24;99822.69;5009082;28;20489;-48
2021/05/24 08:53:10;;;;;;;0.40;0.20;;;;;;;16.92;73.20;99829.81;5009693;28;20459;-48
2021/05/24 08:55:37;;;;;;;0.40;0.20;;;;;;;17.30;70.79;99817.50;5005174;28;20456;-48
2021/05/24 08:58:07;;;;;;;0.40;0.20;;;;;;;17.54;71.87;99808.81;5002711;28;20456;-48
2021/05/24 09:00:34;;;;;;;0.97;0.83;;;;;;;17.73;70.14;99801.31;5008154;28;20450;-48
2021/05/24 09:03:01;;;;;;;0.40;0.20;;;;;;;18.20;68.47;99806.19;5009231;28;20449;-49
2021/05/24 09:05:31;;;;;;;0.40;0.30;;;;;;;18.34;67.33;99789.13;5017170;28;20464;-49
2021/05/24 09:08:04;;;;;;;0.40;0.20;;;;;;;18.07;64.87;99783.78;5016934;28;20456;-48
2021/05/24 09:10:33;;;;;;;0.40;0.20;;;;;;;18.43;67.13;99783.09;5006426;28;20535;-48
2021/05/24 09:13:08;;;;;;;0.40;0.20;;;;;;;18.47;65.54;99767.59;5011273;28;20476;-48
2021/05/24 09:15:37;;;;;;;0.40;0.20;;;;;;;18.63;62.82;99768.25;5008810;28;20542;-48
2021/05/24 09:18:05;;;;;;;0.40;0.20;;;;;;;18.38;63.30;99754.81;5002546;28;20817;-48
2021/05/24 09:20:34;;;;;;;0.40;0.20;;;;;;;17.82;67.01;99741.56;5002759;28;20457;-48
2021/05/24 09:23:19;;;;;;;0.40;0.20;;;;;;;17.94;69.08;99734.47;5008675;28;20824;-48
2021/05/24 09:26:03;;;;;;;0.40;0.20;;;;;;;17.96;66.00;99729.88;5011143;28;20456;-48
2021/05/24 09:28:40;;;;;;;0.40;0.20;;;;;;;17.88;66.62;99722.31;5004085;28;20938;-48
2021/05/24 09:31:11;;;;;;;0.40;0.20;;;;;;;17.76;66.81;99731.22;5008982;28;20491;-47
2021/05/24 09:33:50;;;;;;;0.40;0.20;;;;;;;17.95;66.78;99725.44;5009723;28;20468;-48
2021/05/24 09:36:17;;;;;;;0.40;0.20;;;;;;;17.87;66.00;99719.75;5004391;28;20452;-48
2021/05/24 09:38:48;;;;;;;0.40;0.20;;;;;;;17.72;65.27;99718.94;5002034;28;20965;-48
2021/05/24 09:41:17;;;;;;;0.40;0.20;;;;;;;17.80;64.46;99708.53;5006100;28;20446;-48
2021/05/24 09:43:49;;;;;;;0.40;0.20;;;;;;;18.40;63.09;99717.88;5005503;28;20545;-48
2021/05/24 09:46:17;;;;;;;1.27;0.87;;;;;;;18.53;62.26;99703.44;5012835;28;20445;-48
2021/05/24 09:48:48;;;;;;;0.40;0.20;;;;;;;18.81;64.32;99707.75;5001873;28;20452;-48
2021/05/24 09:51:17;;;;;;;0.40;0.20;;;;;;;18.78;63.83;99709.81;5003484;28;20489;-48
2021/05/24 09:54:05;;;;;;;0.40;0.20;;;;;;;19.20;63.76;99698.59;5008096;28;20484;-49
2021/05/24 09:56:34;;;;;;;0.70;0.70;;;;;;;19.60;61.84;99694.78;5009307;28;20488;-48
2021/05/24 09:59:02;;;;;;;0.40;0.20;;;;;;;19.64;59.71;99699.00;5003634;28;20509;-48
2021/05/24 10:01:32;;;;;;;0.40;0.20;;;;;;;19.59;58.97;99687.66;5001586;28;20456;-48
2021/05/24 10:03:59;;;;;;;0.40;0.20;;;;;;;19.83;59.99;99685.81;5005454;28;20465;-49
2021/05/24 10:06:26;;;;;;;0.40;0.20;;;;;;;20.11;60.49;99692.63;5027811;28;20449;-48
2021/05/24 10:08:56;;;;;;;0.40;0.20;;;;;;;20.05;57.39;99680.50;5004586;28;20449;-48
2021/05/24 10:11:24;;;;;;;0.40;0.20;;;;;;;20.18;58.88;99679.53;5011924;28;20997;-48
2021/05/24 10:13:51;;;;;;;0.40;0.20;;;;;;;20.92;58.11;99681.69;5003392;28;20500;-48
2021/05/24 10:16:19;;;;;;;0.40;0.20;;;;;;;21.01;58.12;99680.09;5011986;28;20480;-48
2021/05/24 10:18:46;;;;;;;0.40;0.20;;;;;;;21.42;58.49;99673.16;5002840;28;20477;-48
2021/05/24 10:21:14;;;;;;;0.40;0.20;;;;;;;21.73;48.31;99674.97;5006542;28;20450;-48
2021/05/24 10:23:40;;;;;;;0.40;0.20;;;;;;;21.72;45.84;99675.97;5005503;28;20559;-49
2021/05/24 10:26:12;;;;;;;0.40;0.30;;;;;;;21.73;45.55;99661.44;5004905;28;20451;-48
2021/05/24 10:28:39;;;;;;;0.40;0.20;;;;;;;21.85;45.35;99665.81;5005925;28;20436;-48
2021/05/24 10:31:16;;;;;;;0.40;0.20;;;;;;;21.47;44.82;99666.34;5008571;28;20471;-48
2021/05/24 10:33:45;;;;;;;0.40;0.20;;;;;;;21.02;44.42;99664.72;5000876;28;20469;-48
2021/05/24 10:36:15;;;;;;;0.40;0.20;;;;;;;20.68;44.44;99668.31;5006070;28;20457;-49
2021/05/24 10:38:42;;;;;;;0.40;0.30;;;;;;;20.96;45.37;99676.88;5007296;28;20502;-48
2021/05/24 10:41:09;;;;;;;0.40;0.20;;;;;;;21.62;44.48;99657.94;5000947;28;20465;-48
2021/05/24 10:43:47;;;;;;;0.50;0.30;;;;;;;21.63;44.39;99646.13;5009391;28;20480;-48
2021/05/24 10:46:29;;;;;;;0.40;0.30;;;;;;;21.81;43.35;99652.69;5028553;22;20887;-50
2021/05/24 10:48:58;;;;;;;0.40;0.20;;;;;;;21.99;43.55;99652.97;5013810;28;20499;-49
2021/05/24 10:51:43;;;;;;;0.40;0.20;;;;;;;21.71;44.38;99649.91;5013752;28;21001;-50
2021/05/24 10:54:09;;;;;;;0.40;0.20;;;;;;;22.20;42.83;99639.44;5003236;28;20453;-50
2021/05/24 10:56:43;;;;;;;0.43;0.20;;;;;;;22.06;43.77;99646.91;5000595;28;20441;-49
2021/05/24 10:59:37;;;;;;;0.40;0.20;;;;;;;21.91;43.45;99647.34;5004002;28;20934;-50
2021/05/24 11:02:23;;;;;;;0.40;0.20;;;;;;;22.44;42.73;99634.56;4994041;28;20504;-49
2021/05/24 11:05:30;;;;;;;0.50;0.50;;;;;;;22.79;43.25;99627.88;5014264;28;20830;-49
2021/05/24 11:08:00;;;;;;;0.40;0.20;;;;;;;22.62;43.42;99627.53;5013804;28;20475;-49
2021/05/24 11:10:31;;;;;;;0.50;0.30;;;;;;;21.58;44.08;99623.03;5010789;28;20448;-49
2021/05/24 11:13:07;;;;;;;0.40;0.20;;;;;;;21.72;44.86;99624.56;5010103;28;20481;-49
2021/05/24 11:15:36;;;;;;;0.40;0.30;;;;;;;21.83;46.40;99616.38;5011704;28;21279;-50
2021/05/24 11:18:06;;;;;;;0.40;0.20;;;;;;;21.64;45.19;99615.38;5012756;28;20486;-50
2021/05/24 11:20:37;;;;;;;0.40;0.20;;;;;;;21.75;45.76;99612.63;5010832;28;20441;-50
2021/05/24 11:26:23;;;;;;;0.40;0.20;;;;;;;21.95;43.77;99595.53;5000762;28;20466;-48
2021/05/24 11:28:51;;;;;;;0.40;0.20;;;;;;;22.08;44.29;99601.63;5006368;28;20463;-49
2021/05/24 11:31:21;;;;;;;0.40;0.20;;;;;;;21.44;43.84;99593.59;5010383;28;20441;-50
2021/05/24 11:33:48;;;;;;;5.93;1.27;;;;;;;21.50;44.01;99598.47;5012565;28;20444;-51
2021/05/24 11:36:40;;;;;;;0.40;0.20;;;;;;;21.82;44.86;99584.06;5012069;28;20467;-51
2021/05/24 11:39:12;;;;;;;0.40;0.20;;;;;;;22.10;43.90;99582.53;4999809;28;20866;-51